Time;durP1;ratioP1;P1;durP2;ratioP2;P2;SDS_P1;SDS_P2;PMS_P1;PMS_P2;Temp;Humidity;BMP_temperature;BMP_pressure;BME280_temperature;BME280_humidity;BME280_pressure;Samples;Min_cycle;Max_cycle;Signal;HPM_P1;HPM_P2
2022/12/05 00:01:26;;;;;;;36.53;19.70;;;4.60;99.90;;;;;;5078185;28;20090;-71
2022/12/05 00:03:54;;;;;;;35.78;20.52;;;4.70;99.90;;;;;;5084672;28;20043;-71
2022/12/05 00:06:21;;;;;;;36.92;21.05;;;4.70;99.90;;;;;;5088078;28;20055;-71
2022/12/05 00:08:48;;;;;;;35.33;19.85;;;4.70;99.90;;;;;;5084049;28;20066;-71
2022/12/05 00:11:19;;;;;;;36.58;20.80;;;4.70;99.90;;;;;;5089585;28;20496;-71
2022/12/05 00:13:45;;;;;;;35.50;20.73;;;4.70;99.90;;;;;;5087280;28;20035;-71
2022/12/05 00:16:15;;;;;;;36.47;20.65;;;4.70;99.90;;;;;;5087450;28;20079;-71
2022/12/05 00:18:41;;;;;;;38.47;20.98;;;4.70;99.90;;;;;;5073902;28;20119;-71
2022/12/05 00:21:12;;;;;;;38.80;21.70;;;4.70;99.90;;;;;;5105630;28;20036;-71
2022/12/05 00:23:37;;;;;;;37.03;21.05;;;4.60;99.90;;;;;;5105295;28;20051;-71
2022/12/05 00:26:04;;;;;;;38.08;20.98;;;4.60;99.90;;;;;;5087201;28;20079;-71
2022/12/05 00:28:31;;;;;;;36.97;20.73;;;4.60;99.90;;;;;;5083140;28;20048;-71
2022/12/05 00:31:01;;;;;;;38.88;22.13;;;4.60;99.90;;;;;;5077986;28;20074;-71
2022/12/05 00:33:26;;;;;;;38.40;21.35;;;4.60;99.90;;;;;;5087060;28;20044;-71
2022/12/05 00:35:52;;;;;;;37.72;21.20;;;4.60;99.90;;;;;;5087494;28;20059;-71
2022/12/05 00:38:17;;;;;;;39.42;22.10;;;4.70;99.90;;;;;;5087011;28;20039;-71
2022/12/05 00:40:43;;;;;;;40.25;23.55;;;4.70;99.90;;;;;;5087757;28;20048;-71
2022/12/05 00:43:09;;;;;;;40.25;23.25;;;4.60;99.90;;;;;;5074331;28;20040;-71
2022/12/05 00:45:34;;;;;;;35.40;21.90;;;4.70;99.90;;;;;;5086648;28;20044;-71
2022/12/05 00:48:01;;;;;;;37.15;21.75;;;4.70;99.90;;;;;;5073589;28;20039;-71
2022/12/05 00:50:27;;;;;;;38.53;22.00;;;4.70;99.90;;;;;;5087567;28;20056;-71
2022/12/05 00:52:52;;;;;;;36.38;21.50;;;4.70;99.90;;;;;;5070617;28;20111;-71
2022/12/05 00:55:18;;;;;;;36.17;20.95;;;4.70;99.90;;;;;;5084205;28;20111;-71
2022/12/05 00:57:43;;;;;;;37.65;22.27;;;4.70;99.90;;;;;;5084538;28;20054;-71
2022/12/05 01:00:10;;;;;;;35.95;22.17;;;4.70;99.90;;;;;;5080852;28;20044;-71
2022/12/05 01:02:35;;;;;;;37.42;21.88;;;4.70;99.90;;;;;;5079903;28;20072;-71
2022/12/05 01:05:01;;;;;;;36.15;21.40;;;4.80;99.90;;;;;;5101414;28;20078;-71
2022/12/05 01:07:27;;;;;;;39.95;21.02;;;4.80;99.90;;;;;;5102882;28;20051;-71
2022/12/05 01:09:52;;;;;;;38.15;22.05;;;4.80;99.90;;;;;;5102526;28;20074;-71
2022/12/05 01:12:18;;;;;;;38.72;23.05;;;4.80;99.90;;;;;;5083841;28;20059;-71
2022/12/05 01:14:44;;;;;;;38.80;22.95;;;4.80;99.90;;;;;;5084379;28;20044;-71
2022/12/05 01:17:10;;;;;;;39.22;21.02;;;4.80;99.90;;;;;;5076072;28;20063;-71
2022/12/05 01:19:35;;;;;;;42.80;22.65;;;4.80;99.90;;;;;;5086362;28;20079;-71
2022/12/05 01:22:01;;;;;;;39.70;21.92;;;4.80;99.90;;;;;;5070108;28;20040;-71
2022/12/05 01:24:28;;;;;;;42.78;22.75;;;4.70;99.90;;;;;;5086467;28;20069;-71
2022/12/05 01:26:55;;;;;;;40.50;24.98;;;4.80;99.90;;;;;;5089210;28;20067;-71
2022/12/05 01:29:22;;;;;;;42.70;23.08;;;4.80;99.90;;;;;;5084645;28;20044;-71
2022/12/05 01:31:48;;;;;;;42.72;24.88;;;4.90;99.90;;;;;;5070430;28;20560;-71
2022/12/05 01:34:16;;;;;;;47.70;25.08;;;4.80;99.90;;;;;;5084467;28;20388;-71
2022/12/05 01:36:43;;;;;;;45.13;24.75;;;4.90;99.90;;;;;;5101667;28;20052;-71
2022/12/05 01:39:10;;;;;;;47.20;24.40;;;4.90;99.90;;;;;;5089684;28;20080;-71
2022/12/05 01:41:40;;;;;;;45.30;25.77;;;5.00;99.90;;;;;;5083885;28;20111;-71
2022/12/05 01:44:12;;;;;;;48.65;24.58;;;5.00;99.90;;;;;;5084015;28;20044;-71
2022/12/05 01:46:43;;;;;;;48.45;26.00;;;5.10;99.90;;;;;;5084144;28;20052;-71
2022/12/05 01:49:22;;;;;;;50.03;27.05;;;5.10;99.90;;;;;;5082372;28;20136;-71
2022/12/05 01:51:52;;;;;;;52.30;27.13;;;5.10;99.90;;;;;;5081934;28;20067;-71
2022/12/05 01:54:20;;;;;;;49.40;25.33;;;5.10;99.90;;;;;;5084390;28;20052;-71
2022/12/05 01:56:54;;;;;;;52.95;26.67;;;5.10;99.90;;;;;;5084210;28;20496;-71
2022/12/05 01:59:21;;;;;;;54.22;26.80;;;5.10;99.90;;;;;;5080406;28;20054;-71
2022/12/05 02:01:47;;;;;;;52.88;26.58;;;5.10;99.90;;;;;;5102944;28;20043;-71
2022/12/05 02:04:13;;;;;;;52.80;27.48;;;5.10;99.90;;;;;;5106664;28;20134;-71
2022/12/05 02:06:39;;;;;;;52.60;25.98;;;5.10;99.90;;;;;;5105577;28;20052;-71
2022/12/05 02:09:05;;;;;;;55.70;27.77;;;5.10;99.90;;;;;;5105475;28;20074;-71
2022/12/05 02:11:32;;;;;;;55.28;27.60;;;5.20;99.90;;;;;;5103747;28;20059;-71
2022/12/05 02:14:05;;;;;;;55.65;28.00;;;5.10;99.90;;;;;;5074472;28;20048;-71
2022/12/05 02:16:48;;;;;;;58.17;28.70;;;5.20;99.90;;;;;;5107835;28;20052;-71
2022/12/05 02:19:31;;;;;;;52.88;25.65;;;5.10;99.90;;;;;;5098892;28;20066;-71
2022/12/05 02:22:34;;;;;;;51.30;25.52;;;5.20;99.90;;;;;;5101355;28;20052;-71
2022/12/05 02:25:24;;;;;;;53.70;28.25;;;5.20;99.90;;;;;;5102511;28;20464;-71
2022/12/05 02:28:29;;;;;;;54.15;26.15;;;5.20;99.90;;;;;;5104691;28;20056;-71
2022/12/05 02:31:07;;;;;;;53.35;26.90;;;5.20;99.90;;;;;;5104587;28;20074;-71
2022/12/05 02:33:59;;;;;;;50.83;28.02;;;5.20;99.90;;;;;;5089335;28;20036;-71
2022/12/05 02:36:36;;;;;;;55.72;27.13;;;5.20;99.90;;;;;;5077704;28;20056;-71
2022/12/05 02:39:17;;;;;;;54.05;28.08;;;5.20;99.90;;;;;;5107704;28;20396;-71
2022/12/05 02:41:59;;;;;;;52.50;26.20;;;5.20;99.90;;;;;;5103263;28;20045;-71
2022/12/05 02:44:37;;;;;;;55.33;26.40;;;5.30;99.90;;;;;;5104578;28;20508;-71
2022/12/05 02:47:06;;;;;;;50.10;26.40;;;5.30;99.90;;;;;;5091030;28;20055;-71
2022/12/05 02:49:35;;;;;;;51.63;25.50;;;5.20;99.90;;;;;;5102496;28;20075;-71
2022/12/05 02:52:04;;;;;;;47.20;25.08;;;5.30;99.90;;;;;;5104747;28;20428;-71
2022/12/05 02:54:37;;;;;;;51.95;25.70;;;5.30;99.90;;;;;;5069094;28;20055;-71
2022/12/05 02:57:04;;;;;;;50.67;25.48;;;5.30;99.90;;;;;;5104347;28;20044;-72
2022/12/05 02:59:30;;;;;;;54.72;27.52;;;5.30;99.90;;;;;;5082578;28;20500;-72
2022/12/05 03:01:56;;;;;;;50.60;27.10;;;5.40;99.90;;;;;;5102734;28;20050;-72
2022/12/05 03:04:24;;;;;;;50.03;24.60;;;5.30;99.90;;;;;;5100022;28;20116;-72
2022/12/05 03:07:07;;;;;;;56.20;24.95;;;5.30;99.90;;;;;;5107110;28;20090;-72
2022/12/05 03:09:46;;;;;;;47.25;24.58;;;5.30;99.90;;;;;;5084585;28;20048;-72
2022/12/05 03:12:24;;;;;;;41.57;22.43;;;5.30;99.90;;;;;;5082530;28;20048;-72
2022/12/05 03:14:56;;;;;;;47.85;23.20;;;5.30;99.90;;;;;;5075685;28;20086;-72
2022/12/05 03:17:27;;;;;;;45.25;23.20;;;5.40;99.90;;;;;;5081411;28;20048;-72
2022/12/05 03:20:11;;;;;;;44.83;22.40;;;5.40;99.90;;;;;;5089232;28;20071;-72
2022/12/05 03:22:53;;;;;;;40.42;21.23;;;5.40;99.90;;;;;;5085412;28;20123;-72
2022/12/05 03:25:24;;;;;;;41.13;21.63;;;5.40;99.90;;;;;;5088318;28;20048;-72
2022/12/05 03:28:16;;;;;;;43.92;22.25;;;5.40;99.90;;;;;;5089335;28;20040;-72
2022/12/05 03:30:42;;;;;;;40.90;22.63;;;5.40;99.90;;;;;;4997540;28;20107;-72
2022/12/05 03:33:14;;;;;;;38.03;20.48;;;5.30;99.90;;;;;;5027235;28;20062;-72
2022/12/05 03:36:07;;;;;;;36.67;19.92;;;5.40;99.90;;;;;;5034252;28;20045;-72
2022/12/05 03:38:54;;;;;;;37.70;20.80;;;5.30;99.90;;;;;;5024048;28;20038;-72
2022/12/05 03:41:39;;;;;;;39.53;19.52;;;5.40;99.90;;;;;;5009108;28;20061;-72
2022/12/05 03:44:39;;;;;;;36.20;20.17;;;5.40;99.90;;;;;;4998461;28;20046;-71
2022/12/05 03:47:10;;;;;;;37.63;21.10;;;5.40;99.90;;;;;;4997837;28;20068;-72
2022/12/05 03:49:44;;;;;;;34.63;19.50;;;5.30;99.90;;;;;;5007954;28;20046;-72
2022/12/05 03:52:19;;;;;;;31.45;19.02;;;5.40;99.90;;;;;;5008155;28;20056;-71
2022/12/05 03:54:52;;;;;;;33.85;19.27;;;5.30;99.90;;;;;;5009173;28;20050;-72
2022/12/05 03:57:23;;;;;;;33.25;19.65;;;5.40;99.90;;;;;;5023959;28;20111;-71
2022/12/05 03:59:55;;;;;;;34.97;19.92;;;5.40;99.90;;;;;;5011444;28;20048;-72
2022/12/05 04:02:30;;;;;;;30.65;18.40;;;5.40;99.90;;;;;;5003758;28;20050;-72
2022/12/05 04:05:22;;;;;;;32.58;19.23;;;5.40;99.90;;;;;;5007255;28;20045;-71
2022/12/05 04:07:58;;;;;;;32.45;17.98;;;5.40;99.90;;;;;;5059252;28;20106;-71
2022/12/05 04:10:28;;;;;;;30.20;18.42;;;5.40;99.90;;;;;;5068552;28;20048;-71
2022/12/05 04:12:58;;;;;;;27.08;17.40;;;5.40;99.90;;;;;;5096981;28;20059;-72
2022/12/05 04:17:01;;;;;;;;;;;5.40;99.90;;;;;;5087918;28;20052;-72
2022/12/05 04:18:18;;;;;;;30.50;17.63;;;5.30;99.90;;;;;;5094801;28;19983;-72
2022/12/05 04:23:30;;;;;;;30.80;17.30;;;5.40;99.90;;;;;;5103599;28;20082;-72
2022/12/05 04:26:22;;;;;;;32.60;18.60;;;5.40;99.90;;;;;;5105477;28;20040;-71
2022/12/05 04:29:19;;;;;;;32.92;19.27;;;5.50;99.90;;;;;;5084251;28;20124;-71
2022/12/05 04:31:50;;;;;;;31.40;18.45;;;5.50;99.90;;;;;;5084535;28;20051;-72
2022/12/05 04:34:18;;;;;;;29.65;18.38;;;5.50;99.90;;;;;;5087371;28;20040;-72
2022/12/05 04:36:54;;;;;;;29.05;17.70;;;5.40;99.90;;;;;;5084809;28;20072;-72
2022/12/05 04:39:29;;;;;;;27.73;16.33;;;5.40;99.90;;;;;;5094434;28;20066;-72
2022/12/05 04:42:03;;;;;;;26.88;16.88;;;5.50;99.90;;;;;;5083490;28;20037;-72
2022/12/05 04:44:33;;;;;;;22.23;15.30;;;5.50;99.90;;;;;;5097259;28;20101;-72
2022/12/05 04:47:02;;;;;;;26.38;16.20;;;5.40;99.90;;;;;;5105116;28;20427;-72
2022/12/05 04:49:31;;;;;;;22.88;15.75;;;5.40;99.90;;;;;;5100123;28;20475;-71
2022/12/05 04:52:07;;;;;;;23.63;15.23;;;5.50;99.90;;;;;;5098665;28;20032;-71
2022/12/05 04:54:58;;;;;;;20.90;13.95;;;5.50;99.90;;;;;;5080290;28;20044;-72
2022/12/05 04:57:29;;;;;;;21.65;12.88;;;5.50;99.90;;;;;;5083475;28;20048;-71
2022/12/05 04:59:55;;;;;;;16.42;12.27;;;5.40;99.90;;;;;;5084341;28;20044;-71
2022/12/05 05:02:31;;;;;;;13.25;10.23;;;5.40;99.90;;;;;;5074653;28;20051;-72
2022/12/05 05:05:00;;;;;;;13.55;9.45;;;5.50;99.90;;;;;;5086845;28;20036;-72
2022/12/05 05:07:26;;;;;;;16.10;10.43;;;5.50;99.90;;;;;;5078851;28;20047;-72
2022/12/05 05:09:51;;;;;;;13.45;10.52;;;5.50;99.90;;;;;;5072499;28;20048;-72
2022/12/05 05:12:17;;;;;;;13.63;9.48;;;5.50;99.90;;;;;;5084930;28;20506;-72
2022/12/05 05:14:43;;;;;;;12.50;8.77;;;5.50;99.90;;;;;;5096522;28;20036;-72
2022/12/05 05:17:08;;;;;;;12.93;8.85;;;5.40;99.90;;;;;;5077607;28;20090;-72
2022/12/05 05:19:34;;;;;;;12.32;9.07;;;5.50;99.90;;;;;;5086566;28;20047;-72
2022/12/05 05:22:00;;;;;;;12.35;9.15;;;5.40;99.90;;;;;;5086558;28;20044;-72
2022/12/05 05:24:26;;;;;;;11.40;8.20;;;5.50;99.90;;;;;;5082286;28;20036;-72
2022/12/05 05:26:51;;;;;;;11.48;9.32;;;5.40;99.90;;;;;;5086654;28;20419;-72
2022/12/05 05:29:17;;;;;;;12.65;8.77;;;5.50;99.90;;;;;;5088947;28;20068;-72
2022/12/05 05:31:43;;;;;;;13.13;9.80;;;5.50;99.90;;;;;;5067294;28;20105;-72
2022/12/05 05:34:10;;;;;;;13.68;9.00;;;5.50;99.90;;;;;;5031841;28;20140;-71
2022/12/05 05:36:37;;;;;;;11.55;8.80;;;5.50;99.90;;;;;;5087336;28;20044;-72
2022/12/05 05:39:04;;;;;;;12.82;9.73;;;5.60;99.90;;;;;;5053783;28;20048;-73
2022/12/05 05:41:32;;;;;;;10.35;8.35;;;5.60;99.90;;;;;;5092011;28;20052;-69
2022/12/05 05:43:58;;;;;;;13.32;9.00;;;5.50;99.90;;;;;;5079208;28;20102;-72
2022/12/05 05:46:26;;;;;;;11.90;9.40;;;5.50;99.90;;;;;;5063886;28;20043;-71
2022/12/05 05:48:52;;;;;;;11.93;8.85;;;5.50;99.90;;;;;;5088270;28;20041;-74
2022/12/05 05:51:19;;;;;;;13.35;9.38;;;5.50;99.90;;;;;;5085570;28;20058;-76
2022/12/05 05:53:45;;;;;;;10.75;8.63;;;5.60;99.90;;;;;;5096690;28;20063;-76
2022/12/05 05:56:14;;;;;;;11.07;8.30;;;5.50;99.90;;;;;;5098739;28;20048;-75
2022/12/05 05:58:40;;;;;;;10.60;8.43;;;5.50;99.90;;;;;;5066429;28;20052;-74
2022/12/05 06:01:13;;;;;;;11.75;8.65;;;5.60;99.90;;;;;;5092105;28;20076;-75
2022/12/05 06:03:39;;;;;;;13.75;8.57;;;5.60;99.90;;;;;;5073603;28;20044;-73
2022/12/05 06:06:07;;;;;;;10.93;8.55;;;5.50;99.90;;;;;;5061588;28;20053;-73
2022/12/05 06:08:36;;;;;;;11.70;9.23;;;5.50;99.90;;;;;;5078242;28;20032;-74
2022/12/05 06:11:16;;;;;;;13.50;9.45;;;5.60;99.90;;;;;;5075914;28;20056;-74
2022/12/05 06:13:42;;;;;;;12.50;8.77;;;5.60;99.90;;;;;;5088223;28;20048;-75
2022/12/05 06:16:10;;;;;;;13.88;8.93;;;5.50;99.90;;;;;;5080718;28;20112;-76
2022/12/05 06:18:36;;;;;;;14.02;9.35;;;5.60;99.90;;;;;;5088971;28;20084;-73
2022/12/05 06:21:04;;;;;;;11.27;9.32;;;5.60;99.90;;;;;;5085010;28;20048;-73
2022/12/05 06:23:30;;;;;;;11.95;9.10;;;5.60;99.90;;;;;;5099650;28;20044;-73
2022/12/05 06:25:56;;;;;;;13.20;8.75;;;5.60;99.90;;;;;;5102419;28;20093;-73
2022/12/05 06:28:24;;;;;;;12.57;8.63;;;5.50;99.90;;;;;;5087361;28;20040;-72
2022/12/05 06:30:50;;;;;;;11.68;8.73;;;5.60;99.90;;;;;;5088590;28;20392;-72
2022/12/05 06:33:16;;;;;;;10.68;7.50;;;5.60;99.90;;;;;;5070905;28;20052;-72
2022/12/05 06:35:42;;;;;;;8.88;7.22;;;5.50;99.90;;;;;;5062905;28;20075;-73
2022/12/05 06:38:09;;;;;;;8.95;6.40;;;5.50;99.90;;;;;;5069289;28;20044;-73
2022/12/05 06:40:40;;;;;;;12.10;8.20;;;5.60;99.90;;;;;;5063790;28;20500;-72
2022/12/05 06:43:05;;;;;;;10.20;7.13;;;5.60;99.90;;;;;;5077359;28;20037;-73
2022/12/05 06:45:31;;;;;;;13.35;7.88;;;5.60;99.90;;;;;;5047291;28;20547;-75
2022/12/05 06:47:57;;;;;;;11.98;8.23;;;5.60;99.90;;;;;;5051914;28;20041;-75
2022/12/05 06:50:23;;;;;;;9.93;7.68;;;5.60;99.90;;;;;;5067042;28;20229;-74
2022/12/05 06:52:49;;;;;;;10.20;7.57;;;5.60;99.90;;;;;;5071843;28;20083;-73
2022/12/05 06:55:15;;;;;;;10.43;7.78;;;5.70;99.90;;;;;;5067672;28;20063;-74
2022/12/05 06:57:41;;;;;;;11.73;7.90;;;5.60;99.90;;;;;;5057038;28;20452;-72
2022/12/05 07:02:53;;;;;;;13.95;8.35;;;5.70;99.90;;;;;;5052405;28;20140;-68
2022/12/05 07:05:19;;;;;;;14.27;8.88;;;5.70;99.90;;;;;;5035342;28;20076;-67
2022/12/05 07:07:45;;;;;;;12.95;8.43;;;5.70;99.90;;;;;;5076581;28;20285;-67
2022/12/05 07:10:11;;;;;;;13.80;8.75;;;5.70;99.90;;;;;;5065099;28;20045;-68
2022/12/05 07:12:37;;;;;;;12.90;8.82;;;5.70;99.90;;;;;;5066115;28;20641;-67
2022/12/05 07:15:03;;;;;;;14.15;8.23;;;5.80;99.90;;;;;;5080511;28;20072;-68
2022/12/05 07:17:28;;;;;;;12.93;8.65;;;5.80;99.90;;;;;;5050374;28;20107;-68
2022/12/05 07:19:54;;;;;;;12.23;8.02;;;5.70;99.90;;;;;;5038518;28;20045;-68
2022/12/05 07:22:21;;;;;;;10.60;7.90;;;5.80;99.90;;;;;;5030841;28;20487;-68
2022/12/05 07:24:47;;;;;;;13.45;8.10;;;5.70;99.90;;;;;;5047906;28;20061;-68
2022/12/05 07:27:14;;;;;;;14.93;9.60;;;5.90;99.90;;;;;;5051226;28;20056;-67
2022/12/05 07:29:40;;;;;;;14.55;8.68;;;5.90;99.90;;;;;;5066236;28;20048;-68
2022/12/05 07:32:06;;;;;;;17.23;8.98;;;5.80;99.90;;;;;;5071649;28;20069;-67
2022/12/05 07:34:33;;;;;;;13.05;8.73;;;5.80;99.90;;;;;;5038645;28;20060;-67
2022/12/05 07:36:59;;;;;;;13.75;9.18;;;5.80;99.90;;;;;;5049736;28;20056;-67
2022/12/05 07:39:26;;;;;;;14.80;9.50;;;5.80;99.90;;;;;;5059241;28;20409;-68
2022/12/05 07:41:51;;;;;;;14.73;9.73;;;5.70;99.90;;;;;;5038621;28;20053;-68
2022/12/05 07:44:17;;;;;;;16.40;9.07;;;5.80;99.90;;;;;;5053293;28;20107;-68
2022/12/05 07:46:43;;;;;;;14.75;9.25;;;5.80;99.90;;;;;;5037972;28;20041;-68
2022/12/05 07:49:08;;;;;;;14.23;9.10;;;5.80;99.90;;;;;;5048078;28;20053;-68
2022/12/05 07:51:34;;;;;;;13.38;8.75;;;5.80;99.90;;;;;;5060058;28;20049;-68
2022/12/05 07:54:00;;;;;;;18.13;9.60;;;5.70;99.90;;;;;;5028698;28;20045;-68
2022/12/05 07:56:26;;;;;;;17.20;10.23;;;5.90;99.90;;;;;;5041820;28;20073;-68
2022/12/05 07:58:53;;;;;;;14.20;9.52;;;5.80;99.90;;;;;;5062001;28;20476;-68
2022/12/05 08:01:25;;;;;;;15.43;9.65;;;5.80;99.90;;;;;;5042014;28;20049;-68
2022/12/05 08:03:55;;;;;;;16.38;9.23;;;5.80;99.90;;;;;;5062453;28;20139;-67
2022/12/05 08:06:24;;;;;;;16.73;9.57;;;5.80;99.90;;;;;;5052909;28;20092;-68
2022/12/05 08:08:50;;;;;;;16.17;8.95;;;5.80;99.90;;;;;;5044060;28;20152;-68
2022/12/05 08:11:19;;;;;;;18.65;9.98;;;5.80;99.90;;;;;;5042405;28;20049;-68
2022/12/05 08:13:45;;;;;;;15.65;9.63;;;5.80;99.90;;;;;;5054177;28;20045;-68
2022/12/05 08:16:14;;;;;;;17.75;10.27;;;5.80;99.90;;;;;;5024796;28;20060;-68
2022/12/05 08:18:40;;;;;;;15.32;10.05;;;5.70;99.90;;;;;;5058493;28;20048;-68
2022/12/05 08:21:12;;;;;;;14.65;9.50;;;5.70;99.90;;;;;;5055148;28;20076;-68
2022/12/05 08:23:39;;;;;;;16.13;9.70;;;5.80;99.90;;;;;;5055344;28;20363;-68
2022/12/05 08:26:06;;;;;;;16.88;10.40;;;5.80;99.90;;;;;;5072008;28;20048;-68
2022/12/05 08:28:32;;;;;;;15.90;9.30;;;5.90;99.90;;;;;;5062762;28;20511;-68
2022/12/05 08:31:10;;;;;;;15.00;9.00;;;5.90;99.90;;;;;;5074905;28;20415;-68
2022/12/05 08:33:36;;;;;;;14.75;9.13;;;5.90;99.90;;;;;;5046906;28;20100;-68
2022/12/05 08:36:03;;;;;;;14.15;8.73;;;5.80;99.90;;;;;;5063191;28;20052;-68
2022/12/05 08:38:29;;;;;;;14.85;9.05;;;5.90;99.90;;;;;;5062689;28;20052;-68
2022/12/05 08:40:55;;;;;;;16.30;9.27;;;5.90;99.90;;;;;;5066709;28;20918;-67
2022/12/05 08:43:21;;;;;;;16.08;9.82;;;6.00;99.90;;;;;;5066183;28;20052;-65
2022/12/05 08:45:51;;;;;;;16.77;9.63;;;5.90;99.90;;;;;;5065803;28;20033;-66
2022/12/05 08:48:17;;;;;;;14.38;8.65;;;5.90;99.90;;;;;;5059783;28;20082;-65
2022/12/05 08:50:43;;;;;;;15.38;9.32;;;5.90;99.90;;;;;;5063945;28;20056;-66
2022/12/05 08:53:09;;;;;;;14.05;9.20;;;5.80;99.90;;;;;;5049327;28;20492;-65
2022/12/05 08:55:35;;;;;;;17.08;9.80;;;5.80;99.90;;;;;;5060705;28;20044;-65
2022/12/05 08:58:01;;;;;;;14.77;9.30;;;5.90;99.90;;;;;;5038694;28;20057;-65
2022/12/05 09:00:27;;;;;;;13.30;9.38;;;5.90;99.90;;;;;;5062542;28;20055;-66
2022/12/05 09:02:52;;;;;;;15.00;8.95;;;5.90;99.90;;;;;;5058524;28;20079;-65
2022/12/05 09:05:18;;;;;;;14.38;9.27;;;5.80;99.90;;;;;;5068864;28;20048;-65
2022/12/05 09:07:44;;;;;;;15.77;8.98;;;5.80;99.90;;;;;;5055007;28;20084;-65
2022/12/05 09:10:10;;;;;;;15.48;10.55;;;5.90;99.90;;;;;;5067064;28;20045;-65
2022/12/05 09:12:37;;;;;;;15.68;9.32;;;5.90;99.90;;;;;;5071146;28;20095;-65
2022/12/05 09:15:06;;;;;;;14.27;8.35;;;5.90;99.90;;;;;;5069247;28;20049;-65
2022/12/05 09:17:34;;;;;;;14.13;9.27;;;5.90;99.90;;;;;;5073084;28;20044;-65
2022/12/05 09:19:59;;;;;;;14.55;9.30;;;5.80;99.90;;;;;;5069592;28;20132;-65
2022/12/05 09:22:25;;;;;;;16.20;9.90;;;5.90;99.90;;;;;;5063470;28;20076;-66
2022/12/05 09:24:51;;;;;;;15.40;9.75;;;5.90;99.90;;;;;;5068566;28;20128;-66
2022/12/05 09:27:17;;;;;;;15.38;9.70;;;5.80;99.90;;;;;;5065995;28;20422;-66
2022/12/05 09:29:43;;;;;;;15.02;9.23;;;5.90;99.90;;;;;;5084845;28;20124;-66
2022/12/05 09:32:09;;;;;;;16.80;9.30;;;5.90;99.90;;;;;;5063001;28;20066;-66
2022/12/05 09:34:36;;;;;;;15.20;8.55;;;5.90;99.90;;;;;;5027614;28;20053;-66
2022/12/05 09:37:06;;;;;;;17.30;9.05;;;5.90;99.90;;;;;;5053516;28;20044;-65
2022/12/05 09:39:32;;;;;;;14.00;8.48;;;6.00;99.90;;;;;;5027746;28;20435;-65
2022/12/05 09:42:35;;;;;;;15.18;9.65;;;5.90;99.90;;;;;;5042433;28;20408;-65
2022/12/05 09:45:24;;;;;;;14.50;9.13;;;5.90;99.90;;;;;;5028965;28;20100;-65
2022/12/05 09:48:18;;;;;;;16.23;9.90;;;5.90;99.90;;;;;;5042604;28;20048;-65
2022/12/05 09:50:45;;;;;;;16.63;9.27;;;5.90;99.90;;;;;;5043311;28;20072;-67
2022/12/05 09:53:20;;;;;;;17.08;9.90;;;5.90;99.90;;;;;;5031823;28;20054;-65
2022/12/05 09:55:57;;;;;;;15.63;9.27;;;5.80;99.90;;;;;;5050261;28;20124;-66
2022/12/05 09:58:36;;;;;;;16.42;10.02;;;5.90;99.90;;;;;;5027023;28;20135;-65
2022/12/05 10:01:23;;;;;;;17.53;9.87;;;6.00;99.90;;;;;;5035888;28;20250;-65
2022/12/05 10:04:23;;;;;;;17.10;9.15;;;6.00;99.90;;;;;;5043726;28;20448;-65
2022/12/05 10:07:10;;;;;;;14.63;9.07;;;5.90;99.90;;;;;;5040286;28;20072;-65
2022/12/05 10:09:48;;;;;;;16.75;10.35;;;5.90;99.90;;;;;;5018322;28;20053;-65
2022/12/05 10:12:16;;;;;;;15.18;9.77;;;5.90;99.90;;;;;;5035574;28;20057;-66
2022/12/05 10:14:58;;;;;;;16.27;10.23;;;5.90;99.90;;;;;;5045277;28;20624;-65
2022/12/05 10:17:32;;;;;;;16.42;9.52;;;5.90;99.90;;;;;;5047074;28;20059;-65
2022/12/05 10:20:03;;;;;;;17.83;9.63;;;5.90;99.90;;;;;;5058727;28;20087;-66
2022/12/05 10:22:39;;;;;;;16.17;10.23;;;5.90;99.90;;;;;;5060253;28;20344;-65
2022/12/05 10:25:06;;;;;;;16.85;9.15;;;5.90;99.90;;;;;;5079006;28;20048;-66
2022/12/05 10:27:36;;;;;;;16.25;9.57;;;5.90;99.90;;;;;;5067852;28;20052;-65
2022/12/05 10:30:13;;;;;;;14.98;9.55;;;5.90;99.90;;;;;;5076260;28;20105;-65
2022/12/05 10:32:55;;;;;;;21.65;10.52;;;5.90;99.90;;;;;;5069792;28;20490;-65
2022/12/05 10:35:27;;;;;;;15.02;9.50;;;5.80;99.90;;;;;;5056524;28;20325;-66
2022/12/05 10:38:17;;;;;;;15.65;9.52;;;6.00;99.90;;;;;;5055169;28;20063;-65
2022/12/05 10:40:49;;;;;;;17.85;9.55;;;6.00;99.90;;;;;;5058527;28;20140;-65
2022/12/05 10:43:23;;;;;;;14.35;9.32;;;6.00;99.90;;;;;;5055736;28;20052;-65
2022/12/05 10:45:49;;;;;;;14.65;9.38;;;5.90;99.90;;;;;;5059262;28;20057;-67
2022/12/05 10:48:17;;;;;;;17.00;9.88;;;5.90;99.90;;;;;;5052512;28;20066;-65
2022/12/05 10:50:47;;;;;;;16.63;9.93;;;6.00;99.90;;;;;;5047335;28;20057;-65
2022/12/05 10:53:23;;;;;;;15.98;9.00;;;5.90;99.90;;;;;;5039532;28;20052;-65
2022/12/05 10:55:50;;;;;;;18.08;9.55;;;5.90;99.90;;;;;;5047249;28;20057;-66
2022/12/05 10:58:21;;;;;;;17.83;9.15;;;5.90;99.90;;;;;;5052469;28;20060;-65
2022/12/05 11:00:50;;;;;;;18.05;9.18;;;5.90;99.90;;;;;;5045829;28;20123;-67
2022/12/05 11:03:22;;;;;;;14.57;8.65;;;5.90;99.90;;;;;;5035884;28;20093;-65
2022/12/05 11:05:54;;;;;;;16.23;9.05;;;5.90;99.90;;;;;;5060165;28;20033;-66
2022/12/05 11:08:23;;;;;;;15.35;9.35;;;6.00;99.90;;;;;;5043219;28;20067;-66
2022/12/05 11:11:02;;;;;;;14.00;9.43;;;5.90;99.90;;;;;;5048671;28;20080;-65
2022/12/05 11:13:29;;;;;;;13.82;8.43;;;5.90;99.90;;;;;;5038058;28;20473;-65
2022/12/05 11:15:55;;;;;;;15.60;8.65;;;6.00;99.90;;;;;;5050304;28;20049;-65
2022/12/05 11:18:28;;;;;;;14.43;9.02;;;6.00;99.90;;;;;;5026370;28;20041;-64
2022/12/05 11:20:54;;;;;;;14.57;7.95;;;5.90;99.90;;;;;;5043104;28;20144;-64
2022/12/05 11:23:29;;;;;;;13.63;8.73;;;6.00;99.90;;;;;;5020452;28;20053;-64
2022/12/05 11:25:57;;;;;;;13.05;8.15;;;6.00;99.90;;;;;;5025572;28;20107;-64
2022/12/05 11:28:30;;;;;;;13.40;8.55;;;5.90;99.90;;;;;;5013516;28;20056;-64
2022/12/05 11:31:00;;;;;;;14.05;8.93;;;6.00;99.90;;;;;;5030609;28;20072;-65
2022/12/05 11:33:28;;;;;;;13.40;8.90;;;6.00;99.90;;;;;;5015657;28;20045;-64
2022/12/05 11:35:56;;;;;;;14.52;9.10;;;5.90;99.90;;;;;;5025619;28;20392;-65
2022/12/05 11:38:27;;;;;;;13.02;8.10;;;5.90;99.90;;;;;;5015237;28;20060;-64
2022/12/05 11:40:58;;;;;;;13.75;8.80;;;6.00;99.90;;;;;;5031586;28;20107;-65
2022/12/05 11:43:42;;;;;;;11.50;7.93;;;6.00;99.90;;;;;;5021458;28;20053;-65
2022/12/05 11:46:29;;;;;;;14.77;8.40;;;5.90;99.90;;;;;;5030011;28;20056;-65
2022/12/05 11:49:32;;;;;;;15.57;8.40;;;5.90;99.90;;;;;;5018447;28;20057;-64
2022/12/05 11:52:23;;;;;;;12.57;7.95;;;5.90;99.90;;;;;;5024659;28;20070;-65
2022/12/05 11:55:21;;;;;;;12.40;7.93;;;6.00;99.90;;;;;;5025130;28;20250;-64
2022/12/05 11:58:25;;;;;;;13.13;7.95;;;6.00;99.90;;;;;;5005649;28;20092;-65
2022/12/05 12:01:17;;;;;;;13.25;7.63;;;6.10;99.90;;;;;;5023635;28;20052;-65
2022/12/05 12:04:03;;;;;;;10.63;6.82;;;6.10;99.90;;;;;;5018150;28;20064;-64
2022/12/05 12:06:53;;;;;;;12.18;6.43;;;6.10;99.90;;;;;;5019424;28;20124;-65
2022/12/05 12:09:41;;;;;;;10.32;6.32;;;6.10;99.90;;;;;;5010214;28;20103;-64
2022/12/05 12:12:38;;;;;;;10.07;6.43;;;6.10;99.90;;;;;;5022949;28;20081;-64
2022/12/05 12:15:19;;;;;;;10.77;5.80;;;6.00;99.90;;;;;;5005904;28;20053;-64
2022/12/05 12:18:26;;;;;;;9.52;6.07;;;6.10;99.90;;;;;;5028370;28;20057;-65
2022/12/05 12:20:55;;;;;;;11.30;6.00;;;6.10;99.90;;;;;;5034640;28;20056;-65
2022/12/05 12:23:39;;;;;;;8.13;5.47;;;6.10;99.90;;;;;;5039418;28;20520;-65
2022/12/05 12:26:32;;;;;;;9.18;5.55;;;6.10;99.90;;;;;;5059379;28;20086;-64
2022/12/05 12:29:32;;;;;;;8.85;5.90;;;6.00;99.90;;;;;;5016504;28;20049;-64
2022/12/05 12:32:36;;;;;;;8.10;5.13;;;6.10;99.90;;;;;;5052024;28;20049;-64
2022/12/05 12:35:27;;;;;;;9.32;5.53;;;6.10;99.90;;;;;;5053344;28;20094;-65
2022/12/05 12:38:14;;;;;;;7.68;5.20;;;6.00;99.90;;;;;;5049910;28;20048;-65
2022/12/05 12:40:49;;;;;;;8.50;5.75;;;6.00;99.90;;;;;;5071809;28;20488;-64
2022/12/05 12:43:23;;;;;;;8.63;5.82;;;6.10;99.90;;;;;;5052212;28;20055;-64
2022/12/05 12:46:04;;;;;;;8.57;5.40;;;6.10;99.90;;;;;;5089414;28;20044;-65
2022/12/05 12:48:57;;;;;;;8.52;5.07;;;6.10;99.90;;;;;;5053871;28;20060;-64
2022/12/05 12:51:23;;;;;;;8.13;5.65;;;6.10;99.90;;;;;;5043481;28;20052;-64
2022/12/05 12:54:31;;;;;;;6.68;5.05;;;6.00;99.90;;;;;;5059066;28;20060;-64
2022/12/05 12:57:19;;;;;;;8.38;5.38;;;6.10;99.90;;;;;;5020850;28;20127;-64
2022/12/05 13:00:12;;;;;;;7.65;5.20;;;6.10;99.90;;;;;;5059358;28;20056;-65
2022/12/05 13:02:40;;;;;;;7.88;4.72;;;6.00;99.90;;;;;;5047077;28;20507;-64
2022/12/05 13:05:20;;;;;;;7.88;5.28;;;6.10;99.90;;;;;;5051954;28;20073;-65
2022/12/05 13:08:14;;;;;;;9.57;5.53;;;6.00;99.90;;;;;;5096003;28;20043;-65
2022/12/05 13:10:44;;;;;;;8.48;5.07;;;6.10;99.90;;;;;;5052731;28;20044;-64
2022/12/05 13:13:12;;;;;;;;;;;6.10;99.90;;;;;;5051942;28;20066;-65
2022/12/05 13:15:43;;;;;;;8.52;5.10;;;6.10;99.90;;;;;;5084892;28;19924;-64